sensor_id;sensor_type;location;lat;lon;timestamp;temperature;humidity
19279;DHT22;9773;47.062;15.446;2022-12-07T00:01:14;3.60;99.90
19279;DHT22;9773;47.062;15.446;2022-12-07T00:03:42;3.60;99.90
19279;DHT22;9773;47.062;15.446;2022-12-07T00:06:11;3.60;99.90
19279;DHT22;9773;47.062;15.446;2022-12-07T00:08:37;3.60;99.90
19279;DHT22;9773;47.062;15.446;2022-12-07T00:11:24;3.60;99.90
19279;DHT22;9773;47.062;15.446;2022-12-07T00:13:56;3.60;99.90
19279;DHT22;9773;47.062;15.446;2022-12-07T00:16:27;3.60;99.90
19279;DHT22;9773;47.062;15.446;2022-12-07T00:18:53;3.60;99.90
19279;DHT22;9773;47.062;15.446;2022-12-07T00:21:22;3.60;99.90
19279;DHT22;9773;47.062;15.446;2022-12-07T00:23:49;3.70;99.90
19279;DHT22;9773;47.062;15.446;2022-12-07T00:29:03;3.70;99.90
19279;DHT22;9773;47.062;15.446;2022-12-07T00:31:32;3.50;99.90
19279;DHT22;9773;47.062;15.446;2022-12-07T00:34:00;3.40;99.90
19279;DHT22;9773;47.062;15.446;2022-12-07T00:36:26;3.20;99.90
19279;DHT22;9773;47.062;15.446;2022-12-07T00:38:53;3.20;99.90
19279;DHT22;9773;47.062;15.446;2022-12-07T00:41:22;3.30;99.90
19279;DHT22;9773;47.062;15.446;2022-12-07T00:43:48;3.40;99.90
19279;DHT22;9773;47.062;15.446;2022-12-07T00:46:16;3.40;99.90
19279;DHT22;9773;47.062;15.446;2022-12-07T00:48:42;3.30;99.90
19279;DHT22;9773;47.062;15.446;2022-12-07T00:51:09;3.20;99.90
19279;DHT22;9773;47.062;15.446;2022-12-07T00:53:37;3.10;99.90
19279;DHT22;9773;47.062;15.446;2022-12-07T00:56:13;3.20;99.90
19279;DHT22;9773;47.062;15.446;2022-12-07T00:58:40;3.30;99.90
19279;DHT22;9773;47.062;15.446;2022-12-07T01:01:07;3.30;99.90
19279;DHT22;9773;47.062;15.446;2022-12-07T01:03:33;3.30;99.90
19279;DHT22;9773;47.062;15.446;2022-12-07T01:06:00;3.30;99.90
19279;DHT22;9773;47.062;15.446;2022-12-07T01:08:27;3.30;99.90
19279;DHT22;9773;47.062;15.446;2022-12-07T01:11:02;3.30;99.90
19279;DHT22;9773;47.062;15.446;2022-12-07T01:13:28;3.30;99.90
19279;DHT22;9773;47.062;15.446;2022-12-07T01:15:57;3.30;99.90
19279;DHT22;9773;47.062;15.446;2022-12-07T01:18:26;3.30;99.90
19279;DHT22;9773;47.062;15.446;2022-12-07T01:21:09;3.30;99.90
19279;DHT22;9773;47.062;15.446;2022-12-07T01:23:36;3.20;99.90
19279;DHT22;9773;47.062;15.446;2022-12-07T01:26:05;3.10;99.90
19279;DHT22;9773;47.062;15.446;2022-12-07T01:28:32;3.10;99.90
19279;DHT22;9773;47.062;15.446;2022-12-07T01:31:00;3.20;99.90
19279;DHT22;9773;47.062;15.446;2022-12-07T01:33:28;3.10;99.90
19279;DHT22;9773;47.062;15.446;2022-12-07T01:36:08;3.00;99.90
19279;DHT22;9773;47.062;15.446;2022-12-07T01:38:34;3.20;99.90
19279;DHT22;9773;47.062;15.446;2022-12-07T01:41:03;3.20;99.90
19279;DHT22;9773;47.062;15.446;2022-12-07T01:43:31;3.20;99.90
19279;DHT22;9773;47.062;15.446;2022-12-07T01:45:58;3.20;99.90
19279;DHT22;9773;47.062;15.446;2022-12-07T01:48:29;3.20;99.90
19279;DHT22;9773;47.062;15.446;2022-12-07T01:50:56;3.20;99.90
19279;DHT22;9773;47.062;15.446;2022-12-07T01:53:27;3.20;99.90
19279;DHT22;9773;47.062;15.446;2022-12-07T01:55:55;3.20;99.90
19279;DHT22;9773;47.062;15.446;2022-12-07T01:58:22;3.10;99.90
19279;DHT22;9773;47.062;15.446;2022-12-07T02:00:48;3.20;99.90
19279;DHT22;9773;47.062;15.446;2022-12-07T02:03:53;3.20;99.90
19279;DHT22;9773;47.062;15.446;2022-12-07T02:06:23;3.10;99.90
19279;DHT22;9773;47.062;15.446;2022-12-07T02:08:50;2.90;99.90
19279;DHT22;9773;47.062;15.446;2022-12-07T02:11:19;3.00;99.90
19279;DHT22;9773;47.062;15.446;2022-12-07T02:13:46;3.10;99.90
19279;DHT22;9773;47.062;15.446;2022-12-07T02:16:25;3.10;99.90
19279;DHT22;9773;47.062;15.446;2022-12-07T02:19:14;3.20;99.90
19279;DHT22;9773;47.062;15.446;2022-12-07T02:22:08;3.30;99.90
19279;DHT22;9773;47.062;15.446;2022-12-07T02:24:57;3.20;99.90
19279;DHT22;9773;47.062;15.446;2022-12-07T02:27:46;3.20;99.90
19279;DHT22;9773;47.062;15.446;2022-12-07T02:30:19;3.20;99.90
19279;DHT22;9773;47.062;15.446;2022-12-07T02:35:33;3.20;99.90
19279;DHT22;9773;47.062;15.446;2022-12-07T02:43:28;3.00;99.90
19279;DHT22;9773;47.062;15.446;2022-12-07T02:45:59;3.10;99.90
19279;DHT22;9773;47.062;15.446;2022-12-07T02:48:27;2.90;99.90
19279;DHT22;9773;47.062;15.446;2022-12-07T02:50:54;2.90;99.90
19279;DHT22;9773;47.062;15.446;2022-12-07T02:53:30;2.90;99.90
19279;DHT22;9773;47.062;15.446;2022-12-07T02:55:56;2.90;99.90
19279;DHT22;9773;47.062;15.446;2022-12-07T02:58:32;2.90;99.90
19279;DHT22;9773;47.062;15.446;2022-12-07T03:01:19;2.90;99.90
19279;DHT22;9773;47.062;15.446;2022-12-07T03:03:51;2.80;99.90
19279;DHT22;9773;47.062;15.446;2022-12-07T03:06:31;2.90;99.90
19279;DHT22;9773;47.062;15.446;2022-12-07T03:09:15;2.90;99.90
19279;DHT22;9773;47.062;15.446;2022-12-07T03:11:48;3.00;99.90
19279;DHT22;9773;47.062;15.446;2022-12-07T03:14:24;2.90;99.90
19279;DHT22;9773;47.062;15.446;2022-12-07T03:16:58;2.90;99.90
19279;DHT22;9773;47.062;15.446;2022-12-07T03:19:27;2.90;99.90
19279;DHT22;9773;47.062;15.446;2022-12-07T03:22:02;2.80;99.90
19279;DHT22;9773;47.062;15.446;2022-12-07T03:24:35;2.80;99.90
19279;DHT22;9773;47.062;15.446;2022-12-07T03:27:09;2.80;99.90
19279;DHT22;9773;47.062;15.446;2022-12-07T03:29:47;2.80;99.90
19279;DHT22;9773;47.062;15.446;2022-12-07T03:32:20;2.80;99.90
19279;DHT22;9773;47.062;15.446;2022-12-07T03:34:56;2.90;99.90
19279;DHT22;9773;47.062;15.446;2022-12-07T03:37:35;2.80;99.90
19279;DHT22;9773;47.062;15.446;2022-12-07T03:42:29;2.70;99.90
19279;DHT22;9773;47.062;15.446;2022-12-07T03:44:55;2.70;99.90
19279;DHT22;9773;47.062;15.446;2022-12-07T03:47:25;2.70;99.90
19279;DHT22;9773;47.062;15.446;2022-12-07T03:49:59;2.70;99.90
19279;DHT22;9773;47.062;15.446;2022-12-07T03:52:47;2.70;99.90
19279;DHT22;9773;47.062;15.446;2022-12-07T03:55:28;2.70;99.90
19279;DHT22;9773;47.062;15.446;2022-12-07T03:58:08;2.70;99.90
19279;DHT22;9773;47.062;15.446;2022-12-07T04:00:35;2.60;99.90
19279;DHT22;9773;47.062;15.446;2022-12-07T04:03:01;2.60;99.90
19279;DHT22;9773;47.062;15.446;2022-12-07T04:05:30;2.40;99.90
19279;DHT22;9773;47.062;15.446;2022-12-07T04:07:56;2.50;99.90
19279;DHT22;9773;47.062;15.446;2022-12-07T04:10:22;2.50;99.90
19279;DHT22;9773;47.062;15.446;2022-12-07T04:12:48;2.50;99.90
19279;DHT22;9773;47.062;15.446;2022-12-07T04:15:14;2.50;99.90
19279;DHT22;9773;47.062;15.446;2022-12-07T04:17:39;2.60;99.90
19279;DHT22;9773;47.062;15.446;2022-12-07T04:20:06;2.70;99.90
19279;DHT22;9773;47.062;15.446;2022-12-07T04:22:32;2.70;99.90
19279;DHT22;9773;47.062;15.446;2022-12-07T04:24:58;2.80;99.90
19279;DHT22;9773;47.062;15.446;2022-12-07T04:27:24;2.80;99.90
19279;DHT22;9773;47.062;15.446;2022-12-07T04:29:49;2.70;99.90
19279;DHT22;9773;47.062;15.446;2022-12-07T04:32:15;2.70;99.90
19279;DHT22;9773;47.062;15.446;2022-12-07T04:34:41;2.70;99.90
19279;DHT22;9773;47.062;15.446;2022-12-07T04:37:09;2.70;99.90
19279;DHT22;9773;47.062;15.446;2022-12-07T04:39:35;2.80;99.90
19279;DHT22;9773;47.062;15.446;2022-12-07T04:42:01;2.70;99.90
19279;DHT22;9773;47.062;15.446;2022-12-07T04:44:27;2.70;99.90
19279;DHT22;9773;47.062;15.446;2022-12-07T04:46:54;2.70;99.90
19279;DHT22;9773;47.062;15.446;2022-12-07T04:49:20;2.70;99.90
19279;DHT22;9773;47.062;15.446;2022-12-07T04:51:47;2.80;99.90
19279;DHT22;9773;47.062;15.446;2022-12-07T04:54:14;2.80;99.90
19279;DHT22;9773;47.062;15.446;2022-12-07T04:56:40;2.70;99.90
19279;DHT22;9773;47.062;15.446;2022-12-07T04:59:06;2.80;99.90
19279;DHT22;9773;47.062;15.446;2022-12-07T05:01:35;2.80;99.90
19279;DHT22;9773;47.062;15.446;2022-12-07T05:04:01;2.70;99.90
19279;DHT22;9773;47.062;15.446;2022-12-07T05:06:27;2.80;99.90
19279;DHT22;9773;47.062;15.446;2022-12-07T05:08:53;2.80;99.90
19279;DHT22;9773;47.062;15.446;2022-12-07T05:11:19;2.80;99.90
19279;DHT22;9773;47.062;15.446;2022-12-07T05:14:11;2.70;99.90
19279;DHT22;9773;47.062;15.446;2022-12-07T05:16:41;2.70;99.90
19279;DHT22;9773;47.062;15.446;2022-12-07T05:19:07;2.70;99.90
19279;DHT22;9773;47.062;15.446;2022-12-07T05:21:34;2.80;99.90
19279;DHT22;9773;47.062;15.446;2022-12-07T05:24:00;2.80;99.90
19279;DHT22;9773;47.062;15.446;2022-12-07T05:26:26;2.90;99.90
19279;DHT22;9773;47.062;15.446;2022-12-07T05:28:53;2.90;99.90
19279;DHT22;9773;47.062;15.446;2022-12-07T05:31:20;2.80;99.90
19279;DHT22;9773;47.062;15.446;2022-12-07T05:33:46;2.70;99.90
19279;DHT22;9773;47.062;15.446;2022-12-07T05:36:12;2.70;99.90
19279;DHT22;9773;47.062;15.446;2022-12-07T05:38:38;2.70;99.90
19279;DHT22;9773;47.062;15.446;2022-12-07T05:41:06;2.70;99.90
19279;DHT22;9773;47.062;15.446;2022-12-07T05:43:33;2.70;99.90
19279;DHT22;9773;47.062;15.446;2022-12-07T05:45:59;2.60;99.90
19279;DHT22;9773;47.062;15.446;2022-12-07T05:48:25;2.60;99.90
19279;DHT22;9773;47.062;15.446;2022-12-07T05:50:52;2.60;99.90
19279;DHT22;9773;47.062;15.446;2022-12-07T05:53:18;2.60;99.90
19279;DHT22;9773;47.062;15.446;2022-12-07T05:55:44;2.50;99.90
19279;DHT22;9773;47.062;15.446;2022-12-07T05:58:10;2.50;99.90
19279;DHT22;9773;47.062;15.446;2022-12-07T06:00:55;2.40;99.90
19279;DHT22;9773;47.062;15.446;2022-12-07T06:03:21;2.40;99.90
19279;DHT22;9773;47.062;15.446;2022-12-07T06:05:47;2.40;99.90
19279;DHT22;9773;47.062;15.446;2022-12-07T06:08:12;2.50;99.90
19279;DHT22;9773;47.062;15.446;2022-12-07T06:10:40;2.50;99.90
19279;DHT22;9773;47.062;15.446;2022-12-07T06:13:07;2.50;99.90
19279;DHT22;9773;47.062;15.446;2022-12-07T06:15:35;2.60;99.90
19279;DHT22;9773;47.062;15.446;2022-12-07T06:18:01;2.60;99.90
19279;DHT22;9773;47.062;15.446;2022-12-07T06:20:27;2.60;99.90
19279;DHT22;9773;47.062;15.446;2022-12-07T06:22:53;2.60;99.90
19279;DHT22;9773;47.062;15.446;2022-12-07T06:25:18;2.50;99.90
19279;DHT22;9773;47.062;15.446;2022-12-07T06:27:44;2.60;99.90
19279;DHT22;9773;47.062;15.446;2022-12-07T06:30:10;2.50;99.90
19279;DHT22;9773;47.062;15.446;2022-12-07T06:32:37;2.60;99.90
19279;DHT22;9773;47.062;15.446;2022-12-07T06:35:03;2.60;99.90
19279;DHT22;9773;47.062;15.446;2022-12-07T06:37:29;2.60;99.90
19279;DHT22;9773;47.062;15.446;2022-12-07T06:39:55;2.60;99.90
19279;DHT22;9773;47.062;15.446;2022-12-07T06:42:21;2.40;99.90
19279;DHT22;9773;47.062;15.446;2022-12-07T06:44:47;2.50;99.90
19279;DHT22;9773;47.062;15.446;2022-12-07T06:47:13;2.60;99.90
19279;DHT22;9773;47.062;15.446;2022-12-07T06:49:39;2.70;99.90
19279;DHT22;9773;47.062;15.446;2022-12-07T06:52:05;2.70;99.90
19279;DHT22;9773;47.062;15.446;2022-12-07T06:54:31;2.70;99.90
19279;DHT22;9773;47.062;15.446;2022-12-07T06:56:57;2.80;99.90
19279;DHT22;9773;47.062;15.446;2022-12-07T06:59:23;2.70;99.90
19279;DHT22;9773;47.062;15.446;2022-12-07T07:01:49;2.70;99.90
19279;DHT22;9773;47.062;15.446;2022-12-07T07:04:14;2.80;99.90
19279;DHT22;9773;47.062;15.446;2022-12-07T07:06:40;2.80;99.90
19279;DHT22;9773;47.062;15.446;2022-12-07T07:09:06;2.80;99.90
19279;DHT22;9773;47.062;15.446;2022-12-07T07:11:32;2.90;99.90
19279;DHT22;9773;47.062;15.446;2022-12-07T07:14:01;2.90;99.90
19279;DHT22;9773;47.062;15.446;2022-12-07T07:16:29;2.90;99.90
19279;DHT22;9773;47.062;15.446;2022-12-07T07:18:58;2.90;99.90
19279;DHT22;9773;47.062;15.446;2022-12-07T07:21:23;2.80;99.90
19279;DHT22;9773;47.062;15.446;2022-12-07T07:23:49;2.90;99.90
19279;DHT22;9773;47.062;15.446;2022-12-07T07:26:15;2.90;99.90
19279;DHT22;9773;47.062;15.446;2022-12-07T07:28:41;3.00;99.90
19279;DHT22;9773;47.062;15.446;2022-12-07T07:31:07;2.90;99.90
19279;DHT22;9773;47.062;15.446;2022-12-07T07:33:33;3.00;99.90
19279;DHT22;9773;47.062;15.446;2022-12-07T07:35:59;3.00;99.90
19279;DHT22;9773;47.062;15.446;2022-12-07T07:38:25;3.10;99.90
19279;DHT22;9773;47.062;15.446;2022-12-07T07:40:50;3.00;99.90
19279;DHT22;9773;47.062;15.446;2022-12-07T07:43:16;3.00;99.90
19279;DHT22;9773;47.062;15.446;2022-12-07T07:45:42;2.90;99.90
19279;DHT22;9773;47.062;15.446;2022-12-07T07:48:08;3.00;99.90
19279;DHT22;9773;47.062;15.446;2022-12-07T07:50:34;3.10;99.90
19279;DHT22;9773;47.062;15.446;2022-12-07T07:52:59;3.20;99.90
19279;DHT22;9773;47.062;15.446;2022-12-07T07:55:25;3.20;99.90
19279;DHT22;9773;47.062;15.446;2022-12-07T07:57:51;3.30;99.90
19279;DHT22;9773;47.062;15.446;2022-12-07T08:00:17;3.40;99.90
19279;DHT22;9773;47.062;15.446;2022-12-07T08:02:43;3.40;99.90
19279;DHT22;9773;47.062;15.446;2022-12-07T08:05:10;3.40;99.90
19279;DHT22;9773;47.062;15.446;2022-12-07T08:07:37;3.50;99.90
19279;DHT22;9773;47.062;15.446;2022-12-07T08:10:03;3.50;99.90
19279;DHT22;9773;47.062;15.446;2022-12-07T08:12:29;3.50;99.90
19279;DHT22;9773;47.062;15.446;2022-12-07T08:14:55;3.50;99.90
19279;DHT22;9773;47.062;15.446;2022-12-07T08:17:21;3.50;99.90
19279;DHT22;9773;47.062;15.446;2022-12-07T08:19:47;3.50;99.90
19279;DHT22;9773;47.062;15.446;2022-12-07T08:22:12;3.60;99.90
19279;DHT22;9773;47.062;15.446;2022-12-07T08:24:38;3.70;99.90
19279;DHT22;9773;47.062;15.446;2022-12-07T08:27:04;3.70;99.90
19279;DHT22;9773;47.062;15.446;2022-12-07T08:29:30;3.80;99.90
19279;DHT22;9773;47.062;15.446;2022-12-07T08:31:56;3.90;99.90
19279;DHT22;9773;47.062;15.446;2022-12-07T08:34:22;3.90;99.90
19279;DHT22;9773;47.062;15.446;2022-12-07T08:36:47;3.90;99.90
19279;DHT22;9773;47.062;15.446;2022-12-07T08:39:13;3.90;99.90
19279;DHT22;9773;47.062;15.446;2022-12-07T08:41:40;3.90;99.90
19279;DHT22;9773;47.062;15.446;2022-12-07T08:44:08;4.00;99.90
19279;DHT22;9773;47.062;15.446;2022-12-07T08:46:58;4.10;99.90
19279;DHT22;9773;47.062;15.446;2022-12-07T08:49:36;4.20;99.90
19279;DHT22;9773;47.062;15.446;2022-12-07T08:52:04;4.20;99.90
19279;DHT22;9773;47.062;15.446;2022-12-07T08:54:30;4.30;99.90
19279;DHT22;9773;47.062;15.446;2022-12-07T08:56:56;4.20;99.90
19279;DHT22;9773;47.062;15.446;2022-12-07T08:59:22;4.20;99.90
19279;DHT22;9773;47.062;15.446;2022-12-07T09:01:48;4.20;99.90
19279;DHT22;9773;47.062;15.446;2022-12-07T09:04:14;4.20;99.90
19279;DHT22;9773;47.062;15.446;2022-12-07T09:06:41;4.30;99.90
19279;DHT22;9773;47.062;15.446;2022-12-07T09:09:08;4.30;99.90
19279;DHT22;9773;47.062;15.446;2022-12-07T09:11:34;4.30;99.90
19279;DHT22;9773;47.062;15.446;2022-12-07T09:14:00;4.40;99.90
19279;DHT22;9773;47.062;15.446;2022-12-07T09:16:26;4.40;99.90
19279;DHT22;9773;47.062;15.446;2022-12-07T09:18:52;4.40;99.90
19279;DHT22;9773;47.062;15.446;2022-12-07T09:21:17;4.40;99.90
19279;DHT22;9773;47.062;15.446;2022-12-07T09:23:43;4.50;99.90
19279;DHT22;9773;47.062;15.446;2022-12-07T09:26:09;4.50;99.90
19279;DHT22;9773;47.062;15.446;2022-12-07T09:28:35;4.50;99.90
19279;DHT22;9773;47.062;15.446;2022-12-07T09:31:02;4.50;99.90
19279;DHT22;9773;47.062;15.446;2022-12-07T09:33:28;4.60;99.90
19279;DHT22;9773;47.062;15.446;2022-12-07T09:35:54;4.60;99.90
19279;DHT22;9773;47.062;15.446;2022-12-07T09:38:20;4.70;99.90
19279;DHT22;9773;47.062;15.446;2022-12-07T09:40:47;4.70;99.90
19279;DHT22;9773;47.062;15.446;2022-12-07T09:43:31;4.70;99.90
19279;DHT22;9773;47.062;15.446;2022-12-07T09:45:57;4.70;99.90
19279;DHT22;9773;47.062;15.446;2022-12-07T09:48:30;4.60;99.90
19279;DHT22;9773;47.062;15.446;2022-12-07T09:50:58;4.70;99.90
19279;DHT22;9773;47.062;15.446;2022-12-07T09:53:36;4.70;99.90
19279;DHT22;9773;47.062;15.446;2022-12-07T09:56:02;4.70;99.90
19279;DHT22;9773;47.062;15.446;2022-12-07T09:58:30;4.80;99.90
19279;DHT22;9773;47.062;15.446;2022-12-07T10:01:01;4.80;99.90
19279;DHT22;9773;47.062;15.446;2022-12-07T10:03:30;4.80;99.90
19279;DHT22;9773;47.062;15.446;2022-12-07T10:05:57;4.80;99.90
19279;DHT22;9773;47.062;15.446;2022-12-07T10:08:24;4.80;99.90
19279;DHT22;9773;47.062;15.446;2022-12-07T10:10:53;4.70;99.90
19279;DHT22;9773;47.062;15.446;2022-12-07T10:13:36;4.70;99.90
19279;DHT22;9773;47.062;15.446;2022-12-07T10:16:03;4.70;99.90
19279;DHT22;9773;47.062;15.446;2022-12-07T10:18:37;4.70;99.90
19279;DHT22;9773;47.062;15.446;2022-12-07T10:21:21;4.70;99.90
19279;DHT22;9773;47.062;15.446;2022-12-07T10:34:43;4.90;99.90
19279;DHT22;9773;47.062;15.446;2022-12-07T10:42:29;5.10;99.90
19279;DHT22;9773;47.062;15.446;2022-12-07T10:45:14;5.20;99.90
19279;DHT22;9773;47.062;15.446;2022-12-07T10:53:35;5.50;99.90
19279;DHT22;9773;47.062;15.446;2022-12-07T11:01:29;5.20;99.90
19279;DHT22;9773;47.062;15.446;2022-12-07T11:10:16;4.90;99.90
19279;DHT22;9773;47.062;15.446;2022-12-07T11:12:51;4.90;99.90
19279;DHT22;9773;47.062;15.446;2022-12-07T11:15:34;4.80;99.90
19279;DHT22;9773;47.062;15.446;2022-12-07T11:18:29;5.00;99.90
19279;DHT22;9773;47.062;15.446;2022-12-07T11:24:19;4.90;99.90
19279;DHT22;9773;47.062;15.446;2022-12-07T11:29:49;5.00;99.90
19279;DHT22;9773;47.062;15.446;2022-12-07T11:32:49;5.10;99.90
19279;DHT22;9773;47.062;15.446;2022-12-07T11:38:03;5.20;99.90
19279;DHT22;9773;47.062;15.446;2022-12-07T11:40:36;5.30;99.90
19279;DHT22;9773;47.062;15.446;2022-12-07T11:43:26;5.40;99.90
19279;DHT22;9773;47.062;15.446;2022-12-07T11:46:14;5.50;99.90
19279;DHT22;9773;47.062;15.446;2022-12-07T11:51:26;5.50;99.90
19279;DHT22;9773;47.062;15.446;2022-12-07T11:53:59;5.50;99.90
19279;DHT22;9773;47.062;15.446;2022-12-07T11:56:28;5.40;99.90
19279;DHT22;9773;47.062;15.446;2022-12-07T11:59:31;5.30;99.90
19279;DHT22;9773;47.062;15.446;2022-12-07T12:02:16;5.30;99.90
19279;DHT22;9773;47.062;15.446;2022-12-07T12:04:55;5.20;99.90
19279;DHT22;9773;47.062;15.446;2022-12-07T12:07:26;5.20;99.90
19279;DHT22;9773;47.062;15.446;2022-12-07T12:10:02;5.30;99.90
19279;DHT22;9773;47.062;15.446;2022-12-07T12:15:25;5.50;99.90
19279;DHT22;9773;47.062;15.446;2022-12-07T12:21:01;6.20;99.90
19279;DHT22;9773;47.062;15.446;2022-12-07T12:26:33;6.30;99.90
19279;DHT22;9773;47.062;15.446;2022-12-07T12:29:06;6.30;99.90
19279;DHT22;9773;47.062;15.446;2022-12-07T12:31:39;6.30;99.90
19279;DHT22;9773;47.062;15.446;2022-12-07T12:34:41;6.30;99.90
19279;DHT22;9773;47.062;15.446;2022-12-07T12:42:53;6.00;99.90
19279;DHT22;9773;47.062;15.446;2022-12-07T12:50:37;5.90;99.90
19279;DHT22;9773;47.062;15.446;2022-12-07T12:53:16;5.90;99.90
19279;DHT22;9773;47.062;15.446;2022-12-07T12:56:20;5.80;99.90
19279;DHT22;9773;47.062;15.446;2022-12-07T13:01:44;5.70;99.90
19279;DHT22;9773;47.062;15.446;2022-12-07T13:04:30;5.60;99.90
19279;DHT22;9773;47.062;15.446;2022-12-07T13:07:00;5.60;99.90
19279;DHT22;9773;47.062;15.446;2022-12-07T13:09:31;5.50;99.90
19279;DHT22;9773;47.062;15.446;2022-12-07T13:12:01;5.50;99.90
19279;DHT22;9773;47.062;15.446;2022-12-07T13:17:11;5.40;99.90
19279;DHT22;9773;47.062;15.446;2022-12-07T13:27:40;5.40;99.90
19279;DHT22;9773;47.062;15.446;2022-12-07T13:30:23;5.30;99.90
19279;DHT22;9773;47.062;15.446;2022-12-07T13:32:57;5.40;99.90
19279;DHT22;9773;47.062;15.446;2022-12-07T13:35:34;5.30;99.90
19279;DHT22;9773;47.062;15.446;2022-12-07T13:38:05;5.30;99.90
19279;DHT22;9773;47.062;15.446;2022-12-07T13:40:31;5.30;99.90
19279;DHT22;9773;47.062;15.446;2022-12-07T13:42:59;5.20;99.90
19279;DHT22;9773;47.062;15.446;2022-12-07T13:45:32;5.20;99.90
19279;DHT22;9773;47.062;15.446;2022-12-07T13:51:17;5.10;99.90
19279;DHT22;9773;47.062;15.446;2022-12-07T13:53:54;5.10;99.90
19279;DHT22;9773;47.062;15.446;2022-12-07T13:56:32;5.00;99.90
19279;DHT22;9773;47.062;15.446;2022-12-07T13:58:59;5.00;99.90
19279;DHT22;9773;47.062;15.446;2022-12-07T14:01:26;5.00;99.90
19279;DHT22;9773;47.062;15.446;2022-12-07T14:03:52;4.90;99.90
19279;DHT22;9773;47.062;15.446;2022-12-07T14:06:22;4.90;99.90
19279;DHT22;9773;47.062;15.446;2022-12-07T14:09:05;5.00;99.90
19279;DHT22;9773;47.062;15.446;2022-12-07T14:11:32;5.00;99.90
19279;DHT22;9773;47.062;15.446;2022-12-07T14:14:01;5.00;99.90
19279;DHT22;9773;47.062;15.446;2022-12-07T14:16:35;5.00;99.90
19279;DHT22;9773;47.062;15.446;2022-12-07T14:19:04;4.90;99.90
19279;DHT22;9773;47.062;15.446;2022-12-07T14:21:32;5.00;99.90
19279;DHT22;9773;47.062;15.446;2022-12-07T14:26:39;4.80;99.90
19279;DHT22;9773;47.062;15.446;2022-12-07T14:31:52;4.80;99.90
19279;DHT22;9773;47.062;15.446;2022-12-07T14:34:20;4.80;99.90
19279;DHT22;9773;47.062;15.446;2022-12-07T14:36:46;4.80;99.90
19279;DHT22;9773;47.062;15.446;2022-12-07T14:39:12;4.80;99.90
19279;DHT22;9773;47.062;15.446;2022-12-07T14:41:38;4.80;99.90
19279;DHT22;9773;47.062;15.446;2022-12-07T14:44:16;4.80;99.90
19279;DHT22;9773;47.062;15.446;2022-12-07T14:46:42;4.70;99.90
19279;DHT22;9773;47.062;15.446;2022-12-07T14:49:08;4.80;99.90
19279;DHT22;9773;47.062;15.446;2022-12-07T14:51:37;4.70;99.90
19279;DHT22;9773;47.062;15.446;2022-12-07T14:54:06;4.70;99.90
19279;DHT22;9773;47.062;15.446;2022-12-07T14:56:32;4.70;99.90
19279;DHT22;9773;47.062;15.446;2022-12-07T14:58:58;4.60;99.90
19279;DHT22;9773;47.062;15.446;2022-12-07T15:01:24;4.60;99.90
19279;DHT22;9773;47.062;15.446;2022-12-07T15:03:49;4.70;99.90
19279;DHT22;9773;47.062;15.446;2022-12-07T15:06:17;4.70;99.90
19279;DHT22;9773;47.062;15.446;2022-12-07T15:08:44;4.70;99.90
19279;DHT22;9773;47.062;15.446;2022-12-07T15:11:13;4.70;99.90
19279;DHT22;9773;47.062;15.446;2022-12-07T15:13:39;4.70;99.90
19279;DHT22;9773;47.062;15.446;2022-12-07T15:16:23;4.70;99.90
19279;DHT22;9773;47.062;15.446;2022-12-07T15:18:49;4.80;99.90
19279;DHT22;9773;47.062;15.446;2022-12-07T15:21:15;4.70;99.90
19279;DHT22;9773;47.062;15.446;2022-12-07T15:23:42;4.80;99.90
19279;DHT22;9773;47.062;15.446;2022-12-07T15:26:09;4.80;99.90
19279;DHT22;9773;47.062;15.446;2022-12-07T15:28:35;4.70;99.90
19279;DHT22;9773;47.062;15.446;2022-12-07T15:31:01;4.80;99.90
19279;DHT22;9773;47.062;15.446;2022-12-07T15:33:28;4.70;99.90
19279;DHT22;9773;47.062;15.446;2022-12-07T15:35:54;4.80;99.90
19279;DHT22;9773;47.062;15.446;2022-12-07T15:38:20;4.80;99.90
19279;DHT22;9773;47.062;15.446;2022-12-07T15:40:50;4.80;99.90
19279;DHT22;9773;47.062;15.446;2022-12-07T15:43:16;4.80;99.90
19279;DHT22;9773;47.062;15.446;2022-12-07T15:46:00;4.80;99.90
19279;DHT22;9773;47.062;15.446;2022-12-07T15:48:26;4.80;99.90
19279;DHT22;9773;47.062;15.446;2022-12-07T15:50:52;4.80;99.90
19279;DHT22;9773;47.062;15.446;2022-12-07T15:53:18;4.80;99.90
19279;DHT22;9773;47.062;15.446;2022-12-07T15:55:43;4.90;99.90
19279;DHT22;9773;47.062;15.446;2022-12-07T15:58:09;4.90;99.90
19279;DHT22;9773;47.062;15.446;2022-12-07T16:00:35;5.00;99.90
19279;DHT22;9773;47.062;15.446;2022-12-07T16:03:01;5.00;99.90
19279;DHT22;9773;47.062;15.446;2022-12-07T16:05:27;5.00;99.90
19279;DHT22;9773;47.062;15.446;2022-12-07T16:07:52;5.00;99.90
19279;DHT22;9773;47.062;15.446;2022-12-07T16:10:18;5.00;99.90
19279;DHT22;9773;47.062;15.446;2022-12-07T16:12:44;5.00;99.90
19279;DHT22;9773;47.062;15.446;2022-12-07T16:15:10;5.00;99.90
19279;DHT22;9773;47.062;15.446;2022-12-07T16:17:36;5.10;99.90
19279;DHT22;9773;47.062;15.446;2022-12-07T16:20:03;5.10;99.90
19279;DHT22;9773;47.062;15.446;2022-12-07T16:22:29;5.10;99.90
19279;DHT22;9773;47.062;15.446;2022-12-07T16:24:55;5.10;99.90
19279;DHT22;9773;47.062;15.446;2022-12-07T16:27:20;5.10;99.90
19279;DHT22;9773;47.062;15.446;2022-12-07T16:29:46;5.10;99.90
19279;DHT22;9773;47.062;15.446;2022-12-07T16:32:12;5.10;99.90
19279;DHT22;9773;47.062;15.446;2022-12-07T16:34:39;5.10;99.90
19279;DHT22;9773;47.062;15.446;2022-12-07T16:37:05;5.10;99.90
19279;DHT22;9773;47.062;15.446;2022-12-07T16:39:35;5.10;99.90
19279;DHT22;9773;47.062;15.446;2022-12-07T16:42:00;5.10;99.90
19279;DHT22;9773;47.062;15.446;2022-12-07T16:44:27;5.10;99.90
19279;DHT22;9773;47.062;15.446;2022-12-07T16:46:53;5.10;99.90
19279;DHT22;9773;47.062;15.446;2022-12-07T16:49:19;5.10;99.90
19279;DHT22;9773;47.062;15.446;2022-12-07T16:51:45;5.10;99.90
19279;DHT22;9773;47.062;15.446;2022-12-07T16:54:12;5.10;99.90
19279;DHT22;9773;47.062;15.446;2022-12-07T16:56:39;5.00;99.90
19279;DHT22;9773;47.062;15.446;2022-12-07T16:59:05;5.10;99.90
19279;DHT22;9773;47.062;15.446;2022-12-07T17:01:30;5.10;99.90
19279;DHT22;9773;47.062;15.446;2022-12-07T17:03:57;5.10;99.90
19279;DHT22;9773;47.062;15.446;2022-12-07T17:06:26;5.10;99.90
19279;DHT22;9773;47.062;15.446;2022-12-07T17:08:53;5.00;99.90
19279;DHT22;9773;47.062;15.446;2022-12-07T17:11:22;4.90;99.90
19279;DHT22;9773;47.062;15.446;2022-12-07T17:13:49;4.90;99.90
19279;DHT22;9773;47.062;15.446;2022-12-07T17:16:33;5.00;99.90
19279;DHT22;9773;47.062;15.446;2022-12-07T17:19:04;5.00;99.90
19279;DHT22;9773;47.062;15.446;2022-12-07T17:21:31;5.00;99.90
19279;DHT22;9773;47.062;15.446;2022-12-07T17:23:58;5.10;99.90
19279;DHT22;9773;47.062;15.446;2022-12-07T17:26:25;5.10;99.90
19279;DHT22;9773;47.062;15.446;2022-12-07T17:28:52;5.10;99.90
19279;DHT22;9773;47.062;15.446;2022-12-07T17:31:20;5.00;99.90
19279;DHT22;9773;47.062;15.446;2022-12-07T17:33:47;5.00;99.90
19279;DHT22;9773;47.062;15.446;2022-12-07T17:36:16;5.00;99.90
19279;DHT22;9773;47.062;15.446;2022-12-07T17:38:42;5.00;99.90
19279;DHT22;9773;47.062;15.446;2022-12-07T17:41:13;5.00;99.90